Time;durP1;ratioP1;P1;durP2;ratioP2;P2;SDS_P1;SDS_P2;PMS_P1;PMS_P2;Temp;Humidity;BMP_temperature;BMP_pressure;BME280_temperature;BME280_humidity;BME280_pressure;Samples;Min_cycle;Max_cycle;Signal;HPM_P1;HPM_P2
2021/08/08 00:02:22;;;;;;;1.93;1.73;;;17.90;85.10;;;;;;4929142;29;20567;-50
2021/08/08 00:04:53;;;;;;;2.00;1.83;;;17.90;85.10;;;;;;4927685;29;20833;-50
2021/08/08 00:07:19;;;;;;;5.30;2.30;;;17.90;85.10;;;;;;4930583;29;20475;-50
2021/08/08 00:09:46;;;;;;;3.83;1.90;;;17.90;84.90;;;;;;4928064;29;20630;-50
2021/08/08 00:12:13;;;;;;;2.17;1.97;;;17.80;85.00;;;;;;4927693;29;20495;-50
2021/08/08 00:14:40;;;;;;;3.83;2.30;;;17.80;85.10;;;;;;4910555;29;20566;-50
2021/08/08 00:17:07;;;;;;;2.30;1.53;;;17.80;85.10;;;;;;4929134;29;20491;-50
2021/08/08 00:19:34;;;;;;;1.60;1.50;;;17.80;85.10;;;;;;4927951;29;20480;-50
2021/08/08 00:22:00;;;;;;;3.70;1.80;;;17.70;85.10;;;;;;4927930;29;20531;-50
2021/08/08 00:24:28;;;;;;;3.20;1.80;;;17.70;85.00;;;;;;4917747;29;20975;-50
2021/08/08 00:26:55;;;;;;;4.33;2.10;;;17.70;85.00;;;;;;4933840;29;20570;-50
2021/08/08 00:29:21;;;;;;;1.97;1.83;;;17.70;85.00;;;;;;4927417;29;20539;-50
2021/08/08 00:31:48;;;;;;;2.27;2.00;;;17.70;84.70;;;;;;4927831;29;21024;-50
2021/08/08 00:34:15;;;;;;;1.77;1.67;;;17.60;84.70;;;;;;4915975;29;20968;-50
2021/08/08 00:36:42;;;;;;;3.67;1.80;;;17.60;84.70;;;;;;4929465;29;20551;-50
2021/08/08 00:39:09;;;;;;;2.40;1.40;;;17.60;84.90;;;;;;4932762;29;20479;-50
2021/08/08 00:41:35;;;;;;;2.30;1.40;;;17.60;85.00;;;;;;4934452;29;20496;-50
2021/08/08 00:44:02;;;;;;;3.77;1.70;;;17.60;85.10;;;;;;4932663;29;20472;-50
2021/08/08 00:46:29;;;;;;;2.23;1.40;;;17.60;84.70;;;;;;4934334;29;20479;-50
2021/08/08 00:48:58;;;;;;;2.47;1.70;;;17.70;84.10;;;;;;4912451;29;20491;-50
2021/08/08 00:51:31;;;;;;;5.30;1.43;;;17.70;83.20;;;;;;4916132;29;21075;-50
2021/08/08 00:53:58;;;;;;;4.00;1.70;;;17.70;83.80;;;;;;4931625;29;20527;-50
2021/08/08 00:56:26;;;;;;;1.63;1.53;;;17.70;83.40;;;;;;4928622;29;20468;-50
2021/08/08 00:58:52;;;;;;;1.70;1.27;;;17.70;83.30;;;;;;4930099;29;20562;-50
2021/08/08 01:01:25;;;;;;;2.90;1.77;;;17.70;83.10;;;;;;4928096;29;20494;-50
2021/08/08 01:03:54;;;;;;;1.80;1.40;;;17.60;82.80;;;;;;4914951;29;20472;-50
2021/08/08 01:06:45;;;;;;;2.60;1.53;;;17.60;83.10;;;;;;4928011;29;20467;-50
2021/08/08 01:09:13;;;;;;;1.60;1.50;;;17.60;83.20;;;;;;4928571;29;20555;-50
2021/08/08 01:11:40;;;;;;;3.00;1.47;;;17.50;83.00;;;;;;4930354;29;21131;-50
2021/08/08 01:14:08;;;;;;;3.30;1.80;;;17.50;83.40;;;;;;4926558;29;22781;-50
2021/08/08 01:16:36;;;;;;;3.30;1.80;;;17.50;83.70;;;;;;4931560;29;20475;-50
2021/08/08 01:19:06;;;;;;;2.27;1.63;;;17.50;83.50;;;;;;4916953;29;20457;-50
2021/08/08 01:21:33;;;;;;;4.40;2.00;;;17.50;83.20;;;;;;4928176;29;20876;-50
2021/08/08 01:24:02;;;;;;;4.67;1.97;;;17.50;83.30;;;;;;4919223;29;20454;-50
2021/08/08 01:26:31;;;;;;;4.30;2.00;;;17.50;83.40;;;;;;4915434;29;20905;-50
2021/08/08 01:28:59;;;;;;;3.00;1.83;;;17.50;83.50;;;;;;4932009;29;20484;-50
2021/08/08 01:31:25;;;;;;;2.33;1.93;;;17.40;83.80;;;;;;4913180;29;20468;-50
2021/08/08 01:33:53;;;;;;;3.40;2.00;;;17.50;83.90;;;;;;4913565;29;20464;-50
2021/08/08 01:36:19;;;;;;;2.40;1.90;;;17.50;83.50;;;;;;4928052;29;20806;-50
2021/08/08 01:39:00;;;;;;;2.97;2.23;;;17.50;83.50;;;;;;4928748;29;20511;-50
2021/08/08 01:41:32;;;;;;;2.97;1.90;;;17.50;83.50;;;;;;4909288;29;20501;-49
2021/08/08 01:44:02;;;;;;;4.50;2.20;;;17.40;83.70;;;;;;4912353;29;20456;-50
2021/08/08 01:46:32;;;;;;;4.00;1.80;;;17.40;83.90;;;;;;4913243;29;20472;-50
2021/08/08 01:49:01;;;;;;;4.97;1.73;;;17.40;83.80;;;;;;4927330;29;20518;-50
2021/08/08 01:51:29;;;;;;;4.40;1.80;;;17.50;83.30;;;;;;4912689;29;20474;-50
2021/08/08 01:53:56;;;;;;;1.80;1.50;;;17.50;83.30;;;;;;4927482;29;20467;-50
2021/08/08 01:56:23;;;;;;;3.10;1.83;;;17.50;83.50;;;;;;4915004;29;20466;-50
2021/08/08 01:58:50;;;;;;;1.83;1.70;;;17.40;83.70;;;;;;4927563;29;20995;-50
2021/08/08 02:01:16;;;;;;;2.60;1.80;;;17.40;83.80;;;;;;4925839;29;20978;-50
2021/08/08 02:03:43;;;;;;;5.63;1.83;;;17.40;83.70;;;;;;4930301;29;20468;-50
2021/08/08 02:06:10;;;;;;;3.60;2.07;;;17.40;83.80;;;;;;4928809;29;20467;-50
2021/08/08 02:08:38;;;;;;;2.37;1.70;;;17.40;83.90;;;;;;4913696;29;20822;-50
2021/08/08 02:11:05;;;;;;;3.10;1.90;;;17.40;83.80;;;;;;4927557;29;20550;-50
2021/08/08 02:13:31;;;;;;;2.27;2.00;;;17.40;83.60;;;;;;4925984;29;20456;-50
2021/08/08 02:15:58;;;;;;;1.80;1.70;;;17.40;83.70;;;;;;4928790;29;20510;-50
2021/08/08 02:18:25;;;;;;;2.87;1.90;;;17.30;83.90;;;;;;4927721;29;20696;-50
2021/08/08 02:20:52;;;;;;;6.70;2.03;;;17.30;84.10;;;;;;4926962;29;20460;-50
2021/08/08 02:23:19;;;;;;;2.23;1.70;;;17.30;84.10;;;;;;4928058;29;20492;-50
2021/08/08 02:25:50;;;;;;;3.73;2.20;;;17.30;84.30;;;;;;4927325;29;20554;-50
2021/08/08 02:28:18;;;;;;;1.80;1.70;;;17.30;84.10;;;;;;4909422;29;20456;-50
2021/08/08 02:30:45;;;;;;;7.03;1.80;;;17.20;84.30;;;;;;4924382;29;20468;-50
2021/08/08 02:33:12;;;;;;;2.37;1.83;;;17.20;84.40;;;;;;4914034;29;20555;-50
2021/08/08 02:35:39;;;;;;;3.83;1.73;;;17.20;84.10;;;;;;4926640;29;20475;-50
2021/08/08 02:38:06;;;;;;;3.60;2.50;;;17.20;84.10;;;;;;4911174;29;20826;-50
2021/08/08 02:40:33;;;;;;;3.53;1.80;;;17.20;84.20;;;;;;4924479;29;20466;-50
2021/08/08 02:43:00;;;;;;;2.60;2.20;;;17.20;84.40;;;;;;4930276;29;20491;-50
2021/08/08 02:45:26;;;;;;;2.83;2.50;;;17.10;84.40;;;;;;4926601;29;20680;-49
2021/08/08 02:47:53;;;;;;;8.77;3.30;;;17.10;84.30;;;;;;4927739;29;20556;-50
2021/08/08 02:50:20;;;;;;;4.10;2.53;;;17.10;84.20;;;;;;4922263;29;20456;-50
2021/08/08 02:52:47;;;;;;;4.47;2.20;;;17.10;83.90;;;;;;4929362;29;21066;-50
2021/08/08 02:55:13;;;;;;;4.97;2.70;;;17.10;83.80;;;;;;4928389;29;20551;-49
2021/08/08 02:57:40;;;;;;;4.20;2.67;;;17.10;83.90;;;;;;4909964;29;20551;-50
2021/08/08 03:00:07;;;;;;;3.10;2.43;;;17.10;83.80;;;;;;4926558;29;20579;-49
2021/08/08 03:02:34;;;;;;;4.57;3.10;;;17.00;83.90;;;;;;4929375;29;20587;-49
2021/08/08 03:05:01;;;;;;;3.63;3.33;;;17.00;83.90;;;;;;4929742;29;21118;-50
2021/08/08 03:07:28;;;;;;;4.00;3.10;;;16.90;84.00;;;;;;4930717;29;20479;-50
2021/08/08 03:09:55;;;;;;;3.43;2.30;;;16.90;84.10;;;;;;4928317;29;21020;-50
2021/08/08 03:12:22;;;;;;;7.43;3.27;;;16.90;84.10;;;;;;4931743;29;20491;-50
2021/08/08 03:14:48;;;;;;;4.00;2.83;;;16.90;84.20;;;;;;4932327;29;20556;-50
2021/08/08 03:17:15;;;;;;;3.20;2.70;;;16.90;84.20;;;;;;4910352;29;21008;-50
2021/08/08 03:19:42;;;;;;;7.47;2.90;;;16.80;84.20;;;;;;4928680;29;20470;-50
2021/08/08 03:22:09;;;;;;;3.23;2.60;;;16.80;84.20;;;;;;4932742;29;20863;-50
2021/08/08 03:24:36;;;;;;;3.13;2.70;;;16.80;84.40;;;;;;4929524;29;20463;-49
2021/08/08 03:27:03;;;;;;;3.03;2.73;;;16.80;84.40;;;;;;4925937;29;20892;-49
2021/08/08 03:29:30;;;;;;;4.43;3.43;;;16.70;84.50;;;;;;4929192;29;20462;-50
2021/08/08 03:31:57;;;;;;;6.13;3.03;;;16.70;84.50;;;;;;4929837;29;20499;-49
2021/08/08 03:34:23;;;;;;;3.30;3.00;;;16.70;84.60;;;;;;4931663;29;20467;-49
2021/08/08 03:36:50;;;;;;;3.20;2.77;;;16.60;84.60;;;;;;4928250;29;20471;-50
2021/08/08 03:39:20;;;;;;;3.17;2.60;;;16.60;84.60;;;;;;4924792;29;20547;-50
2021/08/08 03:41:46;;;;;;;3.47;3.10;;;16.60;84.60;;;;;;4923120;29;20989;-50
2021/08/08 03:44:13;;;;;;;3.00;2.77;;;16.60;84.80;;;;;;4933823;29;20448;-50
2021/08/08 03:46:40;;;;;;;4.20;3.63;;;16.60;85.00;;;;;;4914004;29;20464;-50
2021/08/08 03:49:07;;;;;;;4.97;3.37;;;16.60;85.30;;;;;;4931439;29;20467;-49
2021/08/08 03:51:34;;;;;;;4.17;3.77;;;16.70;85.00;;;;;;4927181;29;20503;-50
2021/08/08 03:54:01;;;;;;;4.43;3.80;;;16.70;84.70;;;;;;4930311;29;20950;-49
2021/08/08 03:56:27;;;;;;;3.77;3.47;;;16.70;84.70;;;;;;4930606;29;20478;-50
2021/08/08 03:58:55;;;;;;;4.90;3.40;;;16.70;84.60;;;;;;4930765;29;20455;-49
2021/08/08 04:01:21;;;;;;;4.77;3.30;;;16.70;84.50;;;;;;4929570;29;20484;-50
2021/08/08 04:03:48;;;;;;;4.30;3.90;;;16.70;84.60;;;;;;4928450;29;20529;-49
2021/08/08 04:06:15;;;;;;;6.17;3.87;;;16.60;84.50;;;;;;4929946;29;20460;-50
2021/08/08 04:08:42;;;;;;;5.70;3.43;;;16.60;84.50;;;;;;4913929;29;20833;-49
2021/08/08 04:11:12;;;;;;;5.00;4.00;;;16.60;84.60;;;;;;4932059;29;20464;-50
2021/08/08 04:13:39;;;;;;;4.37;3.97;;;16.50;84.60;;;;;;4929235;29;20474;-50
2021/08/08 04:16:06;;;;;;;3.97;3.10;;;16.50;84.60;;;;;;4931476;29;20459;-50
2021/08/08 04:18:33;;;;;;;5.50;3.97;;;16.50;84.60;;;;;;4928936;29;20996;-50
2021/08/08 04:21:00;;;;;;;5.60;4.30;;;16.50;84.70;;;;;;4928893;29;21085;-50
2021/08/08 04:23:27;;;;;;;4.30;3.20;;;16.40;84.80;;;;;;4912830;29;20512;-50
2021/08/08 04:25:54;;;;;;;3.23;2.93;;;16.50;84.80;;;;;;4928808;29;20547;-50
2021/08/08 04:28:21;;;;;;;6.07;3.43;;;16.40;84.80;;;;;;4929198;29;20612;-50
2021/08/08 04:30:48;;;;;;;3.77;3.37;;;16.40;84.80;;;;;;4927871;29;20872;-50
2021/08/08 04:33:16;;;;;;;3.20;2.80;;;16.40;84.90;;;;;;4929553;29;20851;-49
2021/08/08 04:35:44;;;;;;;3.13;2.53;;;16.40;85.00;;;;;;4930043;29;20930;-49
2021/08/08 04:38:11;;;;;;;2.40;2.17;;;16.40;85.10;;;;;;4914484;29;20499;-49
2021/08/08 04:40:38;;;;;;;3.10;2.90;;;16.40;85.20;;;;;;4921103;29;20840;-50
2021/08/08 04:43:07;;;;;;;4.30;2.53;;;16.30;85.30;;;;;;4930453;29;20498;-50
2021/08/08 04:45:34;;;;;;;2.97;2.10;;;16.40;85.40;;;;;;4929973;29;20467;-49
2021/08/08 04:48:01;;;;;;;3.03;2.40;;;16.40;85.50;;;;;;4929559;29;20465;-50
2021/08/08 04:50:28;;;;;;;2.80;2.60;;;16.40;85.60;;;;;;4928644;29;20711;-49
2021/08/08 04:52:54;;;;;;;2.53;2.10;;;16.50;85.40;;;;;;4910694;29;20456;-50
2021/08/08 04:55:21;;;;;;;2.47;2.27;;;16.60;85.10;;;;;;4916413;29;20564;-50
2021/08/08 04:57:48;;;;;;;2.50;2.30;;;16.60;85.00;;;;;;4926665;29;20492;-49
2021/08/08 05:00:16;;;;;;;3.63;3.03;;;16.60;84.90;;;;;;4912739;29;20989;-50
2021/08/08 05:02:45;;;;;;;3.40;2.60;;;16.60;85.00;;;;;;4930381;29;20506;-50
2021/08/08 05:05:12;;;;;;;3.77;2.80;;;16.60;84.90;;;;;;4932134;29;20468;-50
2021/08/08 05:07:41;;;;;;;3.10;2.80;;;16.60;85.10;;;;;;4931101;29;20539;-50
2021/08/08 05:10:09;;;;;;;3.93;2.63;;;16.60;85.10;;;;;;4931330;29;20954;-50
2021/08/08 05:12:36;;;;;;;2.80;2.17;;;16.60;85.10;;;;;;4932077;29;20986;-49
2021/08/08 05:15:05;;;;;;;3.50;2.13;;;16.60;85.10;;;;;;4932281;29;20451;-50
2021/08/08 05:17:32;;;;;;;5.00;2.50;;;16.60;85.10;;;;;;4932822;29;20448;-49
2021/08/08 05:19:58;;;;;;;5.77;2.87;;;16.70;85.00;;;;;;4927639;29;20456;-50
2021/08/08 05:22:25;;;;;;;4.63;3.00;;;16.80;84.70;;;;;;4930474;29;20543;-50
2021/08/08 05:24:53;;;;;;;8.07;3.20;;;16.80;84.60;;;;;;4929460;29;21015;-50
2021/08/08 05:27:22;;;;;;;4.43;3.17;;;16.80;84.40;;;;;;4915218;29;20938;-50
2021/08/08 05:29:49;;;;;;;3.20;2.70;;;16.90;84.20;;;;;;4931690;29;20452;-50
2021/08/08 05:32:16;;;;;;;2.70;2.50;;;17.00;83.50;;;;;;4927739;29;20488;-50
2021/08/08 05:34:43;;;;;;;6.00;2.53;;;17.00;83.20;;;;;;4930366;29;20891;-50
2021/08/08 05:37:09;;;;;;;3.87;3.57;;;17.00;83.50;;;;;;4930583;29;20444;-50
2021/08/08 05:39:36;;;;;;;3.30;2.80;;;17.00;83.60;;;;;;4932437;29;20949;-50
2021/08/08 05:42:03;;;;;;;3.43;2.97;;;17.10;83.10;;;;;;4931394;29;20567;-49
2021/08/08 05:44:30;;;;;;;4.53;3.03;;;17.10;83.30;;;;;;4931375;29;20483;-50
2021/08/08 05:46:57;;;;;;;3.20;3.00;;;17.10;83.40;;;;;;4929307;29;20462;-50
2021/08/08 05:49:23;;;;;;;2.80;2.60;;;17.20;83.20;;;;;;4930600;29;20464;-50
2021/08/08 05:51:50;;;;;;;4.33;2.53;;;17.20;82.50;;;;;;4930436;29;20941;-50
2021/08/08 05:54:17;;;;;;;3.03;2.73;;;17.30;82.60;;;;;;4926901;29;20460;-50
2021/08/08 05:56:44;;;;;;;8.13;3.30;;;17.30;82.20;;;;;;4930036;29;20882;-50
2021/08/08 05:59:11;;;;;;;5.17;2.80;;;17.30;82.00;;;;;;4928859;29;20466;-50
2021/08/08 06:01:38;;;;;;;3.63;2.97;;;17.40;81.70;;;;;;4930193;29;20566;-50
2021/08/08 06:04:05;;;;;;;6.90;4.53;;;17.40;81.80;;;;;;4931367;29;21096;-50
2021/08/08 06:06:32;;;;;;;3.33;2.87;;;17.50;81.80;;;;;;4930117;29;20440;-50
2021/08/08 06:08:59;;;;;;;4.10;3.00;;;17.50;81.40;;;;;;4928483;29;20948;-50
2021/08/08 06:11:26;;;;;;;2.77;2.50;;;17.50;81.50;;;;;;4930748;29;20510;-50
2021/08/08 06:13:53;;;;;;;4.97;3.30;;;17.50;80.90;;;;;;4932261;29;20466;-50
2021/08/08 06:16:20;;;;;;;3.37;2.80;;;17.60;81.00;;;;;;4917330;29;20491;-50
2021/08/08 06:18:47;;;;;;;6.57;3.40;;;17.60;81.00;;;;;;4931558;29;20486;-50
2021/08/08 06:21:14;;;;;;;4.07;3.60;;;17.60;80.90;;;;;;4932537;29;20818;-50
2021/08/08 06:23:41;;;;;;;5.93;3.70;;;17.60;80.50;;;;;;4926283;29;20510;-50
2021/08/08 06:26:08;;;;;;;4.07;3.67;;;17.70;80.70;;;;;;4926843;29;20544;-50
2021/08/08 06:28:35;;;;;;;4.67;3.93;;;17.70;80.60;;;;;;4928462;29;20957;-50
2021/08/08 06:31:02;;;;;;;4.80;3.30;;;17.70;79.90;;;;;;4928536;29;20462;-50
2021/08/08 06:33:30;;;;;;;6.13;3.50;;;17.80;80.10;;;;;;4930031;29;20965;-50
2021/08/08 06:35:56;;;;;;;3.80;3.50;;;17.80;79.60;;;;;;4932732;29;20468;-50
2021/08/08 06:38:23;;;;;;;3.93;3.63;;;17.90;79.50;;;;;;4934485;29;20790;-50
2021/08/08 06:40:50;;;;;;;7.67;3.93;;;17.90;78.80;;;;;;4934650;29;20459;-50
2021/08/08 06:43:17;;;;;;;4.93;3.60;;;17.90;79.00;;;;;;4933765;29;20865;-50
2021/08/08 06:45:46;;;;;;;6.63;4.00;;;18.00;79.20;;;;;;4933723;29;20493;-50
2021/08/08 06:48:13;;;;;;;5.53;3.97;;;18.10;78.90;;;;;;4929232;29;20457;-50
2021/08/08 06:50:40;;;;;;;6.27;3.80;;;18.20;78.80;;;;;;4932482;29;20464;-50
2021/08/08 06:53:07;;;;;;;5.53;3.83;;;18.20;78.50;;;;;;4926442;29;20463;-50
2021/08/08 06:55:33;;;;;;;4.53;3.60;;;18.40;77.10;;;;;;4918212;29;20468;-50
2021/08/08 06:58:03;;;;;;;5.27;3.00;;;18.40;76.70;;;;;;4933703;29;20456;-50
2021/08/08 07:00:30;;;;;;;4.40;3.40;;;18.50;77.00;;;;;;4931462;29;20579;-50
2021/08/08 07:03:09;;;;;;;4.87;3.60;;;18.60;76.40;;;;;;4928032;29;20495;-50
2021/08/08 07:05:36;;;;;;;4.77;3.90;;;18.70;75.30;;;;;;4934944;29;20474;-50
2021/08/08 07:08:04;;;;;;;4.70;4.00;;;18.80;75.50;;;;;;4930369;29;20950;-50
2021/08/08 07:10:31;;;;;;;8.40;3.83;;;18.80;75.50;;;;;;4933393;29;20972;-50
2021/08/08 07:12:58;;;;;;;4.90;2.77;;;18.90;73.20;;;;;;4934959;29;20467;-50
2021/08/08 07:15:25;;;;;;;4.10;2.90;;;19.00;72.60;;;;;;4925314;29;20944;-50
2021/08/08 07:17:51;;;;;;;6.33;3.23;;;19.10;73.30;;;;;;4931856;29;20983;-50
2021/08/08 07:20:20;;;;;;;4.00;3.50;;;19.20;71.30;;;;;;4933504;29;20551;-50
2021/08/08 07:22:47;;;;;;;6.87;2.77;;;19.20;72.10;;;;;;4933365;29;20492;-50
2021/08/08 07:25:15;;;;;;;3.67;2.50;;;19.30;70.20;;;;;;4936054;29;20728;-50
2021/08/08 07:27:43;;;;;;;4.47;3.27;;;19.30;71.40;;;;;;4929410;29;20459;-50
2021/08/08 07:30:10;;;;;;;5.23;3.47;;;19.40;71.00;;;;;;4928980;29;20463;-50
2021/08/08 07:32:36;;;;;;;3.13;2.67;;;19.40;71.00;;;;;;4932591;29;20539;-50
2021/08/08 07:35:03;;;;;;;6.10;2.67;;;19.50;70.20;;;;;;4932273;29;21033;-50
2021/08/08 07:37:30;;;;;;;2.30;2.10;;;19.50;69.90;;;;;;4933155;29;20828;-49
2021/08/08 07:39:57;;;;;;;3.70;1.87;;;19.50;69.30;;;;;;4926976;29;20555;-50
2021/08/08 07:42:24;;;;;;;4.07;2.37;;;19.60;69.30;;;;;;4929832;29;20477;-50
2021/08/08 07:44:51;;;;;;;2.30;2.07;;;19.70;69.00;;;;;;4932824;29;20487;-50
2021/08/08 07:47:18;;;;;;;2.83;2.20;;;19.90;68.00;;;;;;4927420;29;20479;-50
2021/08/08 07:49:45;;;;;;;9.90;2.77;;;19.90;68.00;;;;;;4928210;29;20486;-50
2021/08/08 07:52:12;;;;;;;7.43;2.20;;;20.00;67.60;;;;;;4928015;29;20950;-50
2021/08/08 07:54:39;;;;;;;2.43;2.07;;;20.10;67.40;;;;;;4931204;29;20472;-50
2021/08/08 07:57:06;;;;;;;3.87;2.53;;;20.10;66.70;;;;;;4932362;29;20471;-50
2021/08/08 07:59:33;;;;;;;4.20;2.40;;;20.00;66.40;;;;;;4929732;29;20576;-50
2021/08/08 08:02:00;;;;;;;2.83;2.40;;;20.00;67.00;;;;;;4930860;29;20841;-50
2021/08/08 08:04:27;;;;;;;5.23;1.80;;;19.90;66.60;;;;;;4914301;29;20566;-50
2021/08/08 08:06:55;;;;;;;4.33;2.00;;;19.80;66.90;;;;;;4931254;29;20627;-50
2021/08/08 08:09:22;;;;;;;3.40;1.80;;;19.80;67.60;;;;;;4931008;29;20452;-50
2021/08/08 08:11:49;;;;;;;3.67;1.53;;;19.90;66.30;;;;;;4923987;29;20563;-50
2021/08/08 08:14:16;;;;;;;2.53;1.90;;;20.00;66.00;;;;;;4933923;29;20468;-50
2021/08/08 08:16:42;;;;;;;2.30;1.90;;;20.10;65.30;;;;;;4932237;29;20459;-50
2021/08/08 08:19:09;;;;;;;2.90;2.07;;;20.20;64.80;;;;;;4933682;29;20800;-50
2021/08/08 08:21:36;;;;;;;2.20;2.00;;;20.30;65.80;;;;;;4918151;29;20452;-50
2021/08/08 08:24:03;;;;;;;7.53;2.07;;;20.30;64.40;;;;;;4914453;29;21076;-50
2021/08/08 08:26:30;;;;;;;5.60;1.90;;;20.40;64.70;;;;;;4930649;29;20532;-50
2021/08/08 08:28:57;;;;;;;3.40;2.00;;;20.50;64.60;;;;;;4934729;29;20824;-50
2021/08/08 08:31:24;;;;;;;3.70;2.00;;;20.60;64.30;;;;;;4931550;29;20962;-50
2021/08/08 08:33:50;;;;;;;4.83;1.80;;;20.70;63.20;;;;;;4931541;29;20541;-50
2021/08/08 08:36:17;;;;;;;3.40;1.77;;;20.70;63.50;;;;;;4933367;29;20452;-50
2021/08/08 08:38:44;;;;;;;3.70;2.20;;;20.70;63.70;;;;;;4915294;29;20456;-50
2021/08/08 08:41:14;;;;;;;4.60;2.03;;;20.70;64.60;;;;;;4933689;29;20478;-50
2021/08/08 08:43:43;;;;;;;2.10;1.50;;;20.80;63.90;;;;;;4932021;29;20492;-50
2021/08/08 08:46:11;;;;;;;6.20;1.80;;;20.90;62.50;;;;;;4934769;29;20463;-50
2021/08/08 08:48:39;;;;;;;3.13;1.50;;;21.00;62.90;;;;;;4930075;29;21012;-50
2021/08/08 08:51:07;;;;;;;2.57;1.20;;;21.10;61.70;;;;;;4934448;29;20539;-50
2021/08/08 08:53:35;;;;;;;2.77;1.80;;;21.10;61.30;;;;;;4933623;29;20459;-50
2021/08/08 08:56:03;;;;;;;2.87;1.80;;;21.10;62.30;;;;;;4932819;29;20467;-50
2021/08/08 08:58:32;;;;;;;4.33;2.30;;;21.10;62.30;;;;;;4902352;29;20462;-50
2021/08/08 09:00:58;;;;;;;4.97;1.67;;;21.20;61.90;;;;;;4928129;29;20575;-50
2021/08/08 09:03:25;;;;;;;1.60;1.50;;;21.30;61.40;;;;;;4932142;29;20519;-50
2021/08/08 09:05:53;;;;;;;3.47;1.57;;;21.40;59.80;;;;;;4914386;29;20954;-50
2021/08/08 09:08:20;;;;;;;4.53;1.50;;;21.40;60.30;;;;;;4933490;29;20452;-50
2021/08/08 09:11:03;;;;;;;2.30;1.60;;;21.50;60.50;;;;;;4929811;29;20487;-50
2021/08/08 09:13:30;;;;;;;4.87;1.83;;;21.80;60.00;;;;;;4931591;29;20941;-50
2021/08/08 09:15:59;;;;;;;3.20;1.60;;;22.00;59.20;;;;;;4934416;29;20451;-50
2021/08/08 09:18:26;;;;;;;6.90;1.97;;;22.10;58.20;;;;;;4930526;29;20448;-50
2021/08/08 09:20:53;;;;;;;3.03;1.67;;;22.20;57.40;;;;;;4934023;29;20681;-50
2021/08/08 09:23:20;;;;;;;2.53;1.60;;;22.30;57.70;;;;;;4933378;29;20562;-50
2021/08/08 09:25:57;;;;;;;4.30;2.03;;;22.60;56.80;;;;;;4932981;29;20452;-50
2021/08/08 09:28:28;;;;;;;1.67;1.33;;;23.10;56.30;;;;;;4916681;29;20463;-50
2021/08/08 09:30:56;;;;;;;3.60;1.40;;;23.50;54.00;;;;;;4931094;29;20455;-50
2021/08/08 09:33:23;;;;;;;4.70;1.37;;;23.50;53.50;;;;;;4919097;29;20462;-50
2021/08/08 09:35:53;;;;;;;4.47;1.67;;;23.30;54.70;;;;;;4933809;29;20953;-50
2021/08/08 09:38:21;;;;;;;2.77;2.20;;;23.00;54.90;;;;;;4932225;29;20459;-50
2021/08/08 09:40:59;;;;;;;6.40;1.73;;;22.70;56.10;;;;;;4928025;29;20473;-50
2021/08/08 09:43:30;;;;;;;4.50;1.50;;;22.50;57.00;;;;;;4933693;29;20603;-50
2021/08/08 09:45:57;;;;;;;2.90;1.90;;;22.40;57.10;;;;;;4935818;29;20448;-50
2021/08/08 09:48:37;;;;;;;3.13;1.83;;;22.50;57.80;;;;;;4914936;29;20452;-51
2021/08/08 09:51:06;;;;;;;6.23;1.83;;;22.80;55.90;;;;;;4933635;29;20457;-50
2021/08/08 09:53:32;;;;;;;2.80;1.23;;;22.90;55.40;;;;;;4930484;29;20451;-50
2021/08/08 09:56:00;;;;;;;2.80;1.33;;;23.20;54.10;;;;;;4930889;29;20463;-50
2021/08/08 09:58:27;;;;;;;3.23;1.77;;;23.20;54.30;;;;;;4932182;29;20443;-51
2021/08/08 10:00:58;;;;;;;3.03;1.90;;;23.20;54.90;;;;;;4932631;29;21022;-51
2021/08/08 10:03:26;;;;;;;3.53;1.43;;;23.10;54.00;;;;;;4921354;29;20611;-50
2021/08/08 10:05:54;;;;;;;1.63;1.40;;;22.90;53.80;;;;;;4931277;29;20503;-50
2021/08/08 10:08:23;;;;;;;2.87;1.50;;;22.70;55.10;;;;;;4932043;29;20935;-50
2021/08/08 10:10:54;;;;;;;2.40;1.23;;;22.70;54.40;;;;;;4932682;29;20468;-50
2021/08/08 10:13:26;;;;;;;3.80;1.63;;;22.60;54.70;;;;;;4916200;29;20448;-50
2021/08/08 10:15:53;;;;;;;3.80;1.50;;;22.50;54.60;;;;;;4933197;29;20455;-50
2021/08/08 10:18:24;;;;;;;2.20;1.40;;;22.40;56.20;;;;;;4933008;29;21007;-50
2021/08/08 10:20:53;;;;;;;4.87;2.00;;;22.30;56.20;;;;;;4933694;29;20861;-50
2021/08/08 10:23:21;;;;;;;2.47;1.20;;;22.30;56.00;;;;;;4919763;29;20956;-50
2021/08/08 10:25:50;;;;;;;4.83;1.40;;;22.60;54.80;;;;;;4934849;29;20531;-50
2021/08/08 10:28:19;;;;;;;5.97;1.53;;;22.90;54.30;;;;;;4935138;29;20618;-50
2021/08/08 10:30:46;;;;;;;2.40;1.50;;;23.10;53.40;;;;;;4933307;29;20530;-50
2021/08/08 10:33:13;;;;;;;5.13;1.30;;;23.10;53.80;;;;;;4932932;29;20984;-50
2021/08/08 10:35:43;;;;;;;4.60;1.87;;;23.00;54.20;;;;;;4929270;29;20878;-50
2021/08/08 10:38:10;;;;;;;3.17;1.70;;;22.90;55.10;;;;;;4912785;29;20862;-50
2021/08/08 10:40:39;;;;;;;2.00;1.10;;;22.80;54.50;;;;;;4912960;29;20460;-50
2021/08/08 10:43:07;;;;;;;3.67;1.77;;;22.80;53.90;;;;;;4933038;29;20534;-50
2021/08/08 10:45:36;;;;;;;3.93;1.40;;;22.60;54.40;;;;;;4931766;29;20661;-50
2021/08/08 10:48:06;;;;;;;2.17;1.47;;;22.50;54.30;;;;;;4933244;29;20530;-50
2021/08/08 10:50:41;;;;;;;3.73;1.80;;;22.30;55.70;;;;;;4935505;29;20798;-50
2021/08/08 10:53:28;;;;;;;1.73;1.30;;;22.20;55.70;;;;;;4932858;29;20456;-50
2021/08/08 10:56:12;;;;;;;2.60;1.87;;;22.20;56.00;;;;;;4929902;29;20540;-50
2021/08/08 10:58:40;;;;;;;12.10;10.47;;;22.20;56.10;;;;;;4902199;29;20444;-50
2021/08/08 11:01:25;;;;;;;4.77;3.10;;;22.20;56.30;;;;;;4918333;29;20478;-50
2021/08/08 11:03:54;;;;;;;7.50;3.80;;;22.20;56.40;;;;;;4929497;29;20586;-50
2021/08/08 11:06:23;;;;;;;8.47;4.23;;;22.20;56.50;;;;;;4931893;29;20499;-50
2021/08/08 11:08:52;;;;;;;3.17;1.93;;;22.30;57.50;;;;;;4931406;29;20452;-50
2021/08/08 11:11:41;;;;;;;6.03;3.93;;;22.30;56.90;;;;;;4932027;29;20575;-50
2021/08/08 11:14:17;;;;;;;5.10;2.50;;;22.30;56.60;;;;;;4931469;29;20463;-50
2021/08/08 11:16:47;;;;;;;8.77;3.33;;;22.40;56.80;;;;;;4930288;29;20525;-49
2021/08/08 11:19:14;;;;;;;4.77;3.17;;;22.50;57.50;;;;;;4918466;29;20454;-49
2021/08/08 11:21:40;;;;;;;8.00;2.13;;;22.60;56.60;;;;;;4933585;29;20812;-49
2021/08/08 11:24:11;;;;;;;5.17;2.10;;;22.60;56.80;;;;;;4936462;29;20582;-49
2021/08/08 11:26:38;;;;;;;4.83;1.60;;;22.60;56.30;;;;;;4937877;29;20538;-50
2021/08/08 11:29:06;;;;;;;5.63;2.30;;;22.50;57.70;;;;;;4936435;29;20458;-50
2021/08/08 11:31:35;;;;;;;3.83;2.40;;;22.50;56.60;;;;;;4918669;29;20530;-50
2021/08/08 11:34:08;;;;;;;4.43;2.77;;;22.50;57.20;;;;;;4934639;29;20469;-50
2021/08/08 11:36:36;;;;;;;3.00;2.23;;;22.60;56.60;;;;;;4934502;29;20850;-50
2021/08/08 11:39:10;;;;;;;2.60;2.40;;;22.50;57.10;;;;;;4930475;29;20824;-50
2021/08/08 11:41:37;;;;;;;6.97;4.20;;;22.50;57.20;;;;;;4935784;29;20534;-50
2021/08/08 11:44:15;;;;;;;7.63;2.73;;;22.40;57.90;;;;;;4922134;29;20574;-50
2021/08/08 11:46:59;;;;;;;4.43;3.50;;;22.50;56.20;;;;;;4933256;29;20452;-50
2021/08/08 11:49:26;;;;;;;2.20;1.67;;;22.40;56.60;;;;;;4922415;29;20469;-50
2021/08/08 11:52:02;;;;;;;2.93;2.07;;;22.40;57.20;;;;;;4918763;29;20455;-50
2021/08/08 11:54:33;;;;;;;5.30;1.93;;;22.40;57.10;;;;;;4935208;29;20864;-50
2021/08/08 11:57:00;;;;;;;4.17;1.77;;;22.40;57.70;;;;;;4911732;29;20530;-50
2021/08/08 11:59:32;;;;;;;3.47;1.97;;;22.40;58.10;;;;;;4936573;29;20474;-50
2021/08/08 12:02:04;;;;;;;2.83;1.77;;;22.50;57.70;;;;;;4933734;29;20811;-50
2021/08/08 12:04:34;;;;;;;3.40;1.90;;;22.50;57.90;;;;;;4933411;29;21039;-50
2021/08/08 12:07:04;;;;;;;2.40;1.30;;;22.60;57.20;;;;;;4932974;29;20844;-49
2021/08/08 12:09:31;;;;;;;2.57;1.70;;;22.60;56.20;;;;;;4922148;29;20495;-49
2021/08/08 12:11:59;;;;;;;5.10;1.70;;;22.70;56.10;;;;;;4933291;29;20471;-49
2021/08/08 12:14:37;;;;;;;4.10;1.80;;;22.70;55.70;;;;;;4935818;29;21159;-50
2021/08/08 12:17:09;;;;;;;2.27;1.50;;;22.70;55.50;;;;;;4935963;29;20463;-50
2021/08/08 12:19:37;;;;;;;3.27;1.80;;;22.70;55.10;;;;;;4921925;29;20480;-50
2021/08/08 12:22:16;;;;;;;3.20;1.57;;;22.70;54.80;;;;;;4936405;29;20470;-50
2021/08/08 12:24:48;;;;;;;3.40;1.57;;;22.70;54.30;;;;;;4936111;29;20578;-50
2021/08/08 12:27:27;;;;;;;1.50;1.40;;;22.60;54.30;;;;;;4937719;29;20466;-50
2021/08/08 12:29:57;;;;;;;4.40;1.50;;;22.60;54.50;;;;;;4917739;29;20963;-50
2021/08/08 12:32:24;;;;;;;2.17;1.50;;;22.70;54.50;;;;;;4905277;29;20510;-50
2021/08/08 12:34:51;;;;;;;4.03;1.57;;;22.70;55.10;;;;;;4934957;29;20462;-50
2021/08/08 12:37:22;;;;;;;2.30;1.80;;;22.70;55.80;;;;;;4934110;29;20832;-50
2021/08/08 12:39:48;;;;;;;6.87;2.23;;;22.80;55.50;;;;;;4932269;29;20482;-50
2021/08/08 12:42:17;;;;;;;2.53;1.73;;;22.90;55.00;;;;;;4932927;29;20942;-50
2021/08/08 12:44:44;;;;;;;2.00;1.50;;;22.90;55.30;;;;;;4935152;29;20494;-50
2021/08/08 12:47:22;;;;;;;4.33;1.90;;;22.90;54.10;;;;;;4933583;29;20942;-50
2021/08/08 12:49:49;;;;;;;2.90;2.20;;;22.90;54.20;;;;;;4933204;29;20443;-50
2021/08/08 12:52:16;;;;;;;4.13;3.00;;;22.90;54.60;;;;;;4930655;29;20450;-50
2021/08/08 12:54:43;;;;;;;5.53;3.07;;;22.70;54.30;;;;;;4930984;29;20495;-50